Bismarck, North Dakota
Current Conditions -  °F | °C
As of 6:52 AM on Saturday 01 Nov 2014 (Local Time) from KBIS Reporting Station
Clear Clear  
Wind Chill: -7°   Ceiling: Unl
Heat Index: -1°   Visibility: 10mi
Dew Point: -8°   Wind: 16mph
Humidity: 59%   Direction: 150°SSE
Pressure: 29.94"   Gusts: NA
Location:  46.81°N, 100.77°W
Report Text: KBIS 011152Z AUTO 15014KT 10SM CLR M01/M08 A2994 RMK AO2 SLP158 T10061078 10011 21006 56012
Loading
Personal Weather Stations






























Interactive Weather Map
Tropical Storm Tracking
New forecast layout! Learn more

10-Day Weather Forecast

Advertisements
Track Severe Weather on mobile